sensor_id;sensor_type;location;lat;lon;timestamp;pressure;altitude;pressure_sealevel;temperature;humidity
35435;BME280;21556;55.782;37.528;2022-08-01T00:01:05;100004.97;;;20.11;100.00
35435;BME280;21556;55.782;37.528;2022-08-01T00:03:30;100004.19;;;20.04;100.00
35435;BME280;21556;55.782;37.528;2022-08-01T00:05:56;99997.75;;;20.17;100.00
35435;BME280;21556;55.782;37.528;2022-08-01T00:08:22;100001.34;;;20.15;100.00
35435;BME280;21556;55.782;37.528;2022-08-01T00:10:48;100002.25;;;20.14;100.00
35435;BME280;21556;55.782;37.528;2022-08-01T00:13:13;99995.28;;;20.08;100.00
35435;BME280;21556;55.782;37.528;2022-08-01T00:15:39;99995.19;;;20.13;100.00
35435;BME280;21556;55.782;37.528;2022-08-01T00:18:05;99989.88;;;20.11;100.00
35435;BME280;21556;55.782;37.528;2022-08-01T00:20:31;99992.72;;;20.01;100.00
35435;BME280;21556;55.782;37.528;2022-08-01T00:22:57;99988.31;;;20.01;100.00
35435;BME280;21556;55.782;37.528;2022-08-01T00:25:23;99985.47;;;20.10;100.00
35435;BME280;21556;55.782;37.528;2022-08-01T00:27:48;99980.31;;;20.01;100.00
35435;BME280;21556;55.782;37.528;2022-08-01T00:30:14;99986.59;;;19.95;100.00
35435;BME280;21556;55.782;37.528;2022-08-01T00:32:43;99986.50;;;20.02;100.00
35435;BME280;21556;55.782;37.528;2022-08-01T00:35:09;99984.78;;;19.99;100.00
35435;BME280;21556;55.782;37.528;2022-08-01T00:37:35;99985.81;;;19.89;100.00
35435;BME280;21556;55.782;37.528;2022-08-01T00:40:01;99986.00;;;19.78;100.00
35435;BME280;21556;55.782;37.528;2022-08-01T00:42:29;99984.22;;;19.79;100.00
35435;BME280;21556;55.782;37.528;2022-08-01T00:44:55;99991.16;;;19.90;100.00
35435;BME280;21556;55.782;37.528;2022-08-01T00:47:21;99990.19;;;19.93;100.00
35435;BME280;21556;55.782;37.528;2022-08-01T00:49:46;99986.69;;;19.91;100.00
35435;BME280;21556;55.782;37.528;2022-08-01T00:52:12;99992.16;;;19.83;100.00
35435;BME280;21556;55.782;37.528;2022-08-01T00:54:38;99993.25;;;19.70;100.00
35435;BME280;21556;55.782;37.528;2022-08-01T00:57:04;99993.38;;;19.59;100.00
35435;BME280;21556;55.782;37.528;2022-08-01T00:59:30;99998.66;;;19.64;100.00
35435;BME280;21556;55.782;37.528;2022-08-01T01:01:56;99991.63;;;19.57;100.00
35435;BME280;21556;55.782;37.528;2022-08-01T01:04:22;99998.78;;;19.55;100.00
35435;BME280;21556;55.782;37.528;2022-08-01T01:07:00;99992.63;;;19.49;100.00
35435;BME280;21556;55.782;37.528;2022-08-01T01:09:42;99988.31;;;19.42;100.00
35435;BME280;21556;55.782;37.528;2022-08-01T01:15:10;99988.13;;;19.55;100.00
35435;BME280;21556;55.782;37.528;2022-08-01T01:17:44;99990.81;;;19.53;100.00
35435;BME280;21556;55.782;37.528;2022-08-01T01:20:13;99983.88;;;19.43;100.00
35435;BME280;21556;55.782;37.528;2022-08-01T01:31:25;99980.41;;;19.39;100.00
35435;BME280;21556;55.782;37.528;2022-08-01T01:33:53;99980.75;;;19.15;100.00
35435;BME280;21556;55.782;37.528;2022-08-01T01:36:21;99984.13;;;19.26;100.00
35435;BME280;21556;55.782;37.528;2022-08-01T01:38:51;99975.22;;;19.27;100.00
35435;BME280;21556;55.782;37.528;2022-08-01T01:41:17;99984.88;;;19.34;100.00
35435;BME280;21556;55.782;37.528;2022-08-01T01:43:45;99985.75;;;19.36;100.00
35435;BME280;21556;55.782;37.528;2022-08-01T01:46:12;99978.66;;;19.35;100.00
35435;BME280;21556;55.782;37.528;2022-08-01T01:48:43;99977.84;;;19.30;100.00
35435;BME280;21556;55.782;37.528;2022-08-01T01:51:12;99986.09;;;19.12;100.00
35435;BME280;21556;55.782;37.528;2022-08-01T01:53:40;99984.13;;;19.26;100.00
35435;BME280;21556;55.782;37.528;2022-08-01T01:56:08;99982.44;;;19.19;100.00
35435;BME280;21556;55.782;37.528;2022-08-01T01:58:35;99977.25;;;19.10;100.00
35435;BME280;21556;55.782;37.528;2022-08-01T02:01:03;99983.75;;;18.89;100.00
35435;BME280;21556;55.782;37.528;2022-08-01T02:03:30;99982.56;;;19.10;100.00
35435;BME280;21556;55.782;37.528;2022-08-01T02:05:57;99972.19;;;18.91;100.00
35435;BME280;21556;55.782;37.528;2022-08-01T02:08:25;99975.84;;;18.83;100.00
35435;BME280;21556;55.782;37.528;2022-08-01T02:10:53;99978.25;;;19.01;100.00
35435;BME280;21556;55.782;37.528;2022-08-01T02:13:40;99981.72;;;19.06;100.00
35435;BME280;21556;55.782;37.528;2022-08-01T02:16:08;99976.63;;;18.91;100.00
35435;BME280;21556;55.782;37.528;2022-08-01T02:18:36;99974.78;;;18.96;100.00
35435;BME280;21556;55.782;37.528;2022-08-01T02:21:05;99972.03;;;19.04;100.00
35435;BME280;21556;55.782;37.528;2022-08-01T02:23:34;99979.13;;;19.03;100.00
35435;BME280;21556;55.782;37.528;2022-08-01T02:26:03;99973.06;;;18.93;100.00
35435;BME280;21556;55.782;37.528;2022-08-01T02:28:41;99981.06;;;18.90;100.00
35435;BME280;21556;55.782;37.528;2022-08-01T02:31:12;99974.97;;;18.82;100.00
35435;BME280;21556;55.782;37.528;2022-08-01T02:33:53;99977.72;;;18.70;100.00
35435;BME280;21556;55.782;37.528;2022-08-01T02:36:24;99976.72;;;18.83;100.00
35435;BME280;21556;55.782;37.528;2022-08-01T02:38:52;99975.91;;;18.76;100.00
35435;BME280;21556;55.782;37.528;2022-08-01T02:41:21;99981.31;;;18.67;100.00
35435;BME280;21556;55.782;37.528;2022-08-01T02:43:50;99977.66;;;18.79;100.00
35435;BME280;21556;55.782;37.528;2022-08-01T02:46:42;99977.69;;;18.78;100.00
35435;BME280;21556;55.782;37.528;2022-08-01T02:49:10;99977.47;;;18.94;100.00
35435;BME280;21556;55.782;37.528;2022-08-01T02:51:39;99980.25;;;18.85;100.00
35435;BME280;21556;55.782;37.528;2022-08-01T02:54:06;99980.22;;;18.88;100.00
35435;BME280;21556;55.782;37.528;2022-08-01T02:56:34;99978.56;;;18.76;100.00
35435;BME280;21556;55.782;37.528;2022-08-01T02:59:05;99972.38;;;18.76;100.00
35435;BME280;21556;55.782;37.528;2022-08-01T03:01:35;99980.28;;;18.81;100.00
35435;BME280;21556;55.782;37.528;2022-08-01T03:04:05;99981.22;;;18.76;100.00
35435;BME280;21556;55.782;37.528;2022-08-01T03:06:33;99975.94;;;18.75;100.00
35435;BME280;21556;55.782;37.528;2022-08-01T03:09:03;99981.13;;;18.84;100.00
35435;BME280;21556;55.782;37.528;2022-08-01T03:11:31;99980.13;;;18.96;100.00
35435;BME280;21556;55.782;37.528;2022-08-01T03:14:00;99982.81;;;18.91;100.00
35435;BME280;21556;55.782;37.528;2022-08-01T03:16:28;99979.34;;;18.86;100.00
35435;BME280;21556;55.782;37.528;2022-08-01T03:18:57;99973.22;;;18.80;100.00
35435;BME280;21556;55.782;37.528;2022-08-01T03:21:24;99982.00;;;18.86;100.00
35435;BME280;21556;55.782;37.528;2022-08-01T03:23:51;99982.00;;;18.86;100.00
35435;BME280;21556;55.782;37.528;2022-08-01T03:26:31;99973.22;;;18.80;100.00
35435;BME280;21556;55.782;37.528;2022-08-01T03:29:02;99984.56;;;18.94;100.00
35435;BME280;21556;55.782;37.528;2022-08-01T03:31:34;99985.28;;;19.07;100.00
35435;BME280;21556;55.782;37.528;2022-08-01T03:34:01;99985.41;;;18.97;100.00
35435;BME280;21556;55.782;37.528;2022-08-01T03:36:28;99977.13;;;19.19;100.00
35435;BME280;21556;55.782;37.528;2022-08-01T03:38:57;99975.34;;;19.19;100.00
35435;BME280;21556;55.782;37.528;2022-08-01T03:41:27;99980.78;;;19.12;100.00
35435;BME280;21556;55.782;37.528;2022-08-01T03:43:57;99978.13;;;19.12;100.00
35435;BME280;21556;55.782;37.528;2022-08-01T03:46:31;99969.19;;;19.17;100.00
35435;BME280;21556;55.782;37.528;2022-08-01T03:49:00;99968.28;;;19.17;100.00
35435;BME280;21556;55.782;37.528;2022-08-01T03:51:31;99972.50;;;19.33;100.00
35435;BME280;21556;55.782;37.528;2022-08-01T03:54:00;99973.16;;;19.46;100.00
35435;BME280;21556;55.782;37.528;2022-08-01T03:56:27;99970.47;;;19.51;100.00
35435;BME280;21556;55.782;37.528;2022-08-01T03:58:59;99974.69;;;19.64;100.00
35435;BME280;21556;55.782;37.528;2022-08-01T04:01:25;99971.13;;;19.66;100.00
35435;BME280;21556;55.782;37.528;2022-08-01T04:03:52;99975.56;;;19.64;100.00
35435;BME280;21556;55.782;37.528;2022-08-01T04:06:18;99961.16;;;19.78;100.00
35435;BME280;21556;55.782;37.528;2022-08-01T04:08:44;99958.41;;;19.82;100.00
35435;BME280;21556;55.782;37.528;2022-08-01T04:11:24;99958.50;;;19.78;100.00
35435;BME280;21556;55.782;37.528;2022-08-01T04:13:52;99959.47;;;19.74;100.00
35435;BME280;21556;55.782;37.528;2022-08-01T04:16:19;99959.25;;;19.86;100.00
35435;BME280;21556;55.782;37.528;2022-08-01T04:18:45;99953.88;;;19.89;100.00
35435;BME280;21556;55.782;37.528;2022-08-01T04:21:11;99959.94;;;19.97;100.00
35435;BME280;21556;55.782;37.528;2022-08-01T04:23:39;99958.00;;;20.07;100.00
35435;BME280;21556;55.782;37.528;2022-08-01T04:26:07;99964.09;;;20.13;100.00
35435;BME280;21556;55.782;37.528;2022-08-01T04:28:34;99966.72;;;20.15;100.00
35435;BME280;21556;55.782;37.528;2022-08-01T04:31:02;99965.91;;;20.11;100.00
35435;BME280;21556;55.782;37.528;2022-08-01T04:33:31;99973.72;;;20.20;100.00
35435;BME280;21556;55.782;37.528;2022-08-01T04:35:59;99963.13;;;20.19;100.00
35435;BME280;21556;55.782;37.528;2022-08-01T04:38:26;99968.25;;;20.28;100.00
35435;BME280;21556;55.782;37.528;2022-08-01T04:40:54;99967.44;;;20.26;100.00
35435;BME280;21556;55.782;37.528;2022-08-01T04:43:22;99959.19;;;20.38;100.00
35435;BME280;21556;55.782;37.528;2022-08-01T04:45:48;99964.41;;;20.44;100.00
35435;BME280;21556;55.782;37.528;2022-08-01T04:48:17;99961.75;;;20.44;100.00
35435;BME280;21556;55.782;37.528;2022-08-01T04:50:45;99963.44;;;20.49;100.00
35435;BME280;21556;55.782;37.528;2022-08-01T04:53:19;99966.84;;;20.57;100.00
35435;BME280;21556;55.782;37.528;2022-08-01T04:55:47;99961.63;;;20.52;100.00
35435;BME280;21556;55.782;37.528;2022-08-01T04:58:16;99967.72;;;20.57;100.00
35435;BME280;21556;55.782;37.528;2022-08-01T05:00:42;99965.00;;;20.60;100.00
35435;BME280;21556;55.782;37.528;2022-08-01T05:03:08;99973.81;;;20.64;100.00
35435;BME280;21556;55.782;37.528;2022-08-01T05:05:34;99970.38;;;20.59;99.50
35435;BME280;21556;55.782;37.528;2022-08-01T05:08:00;99972.94;;;20.63;98.80
35435;BME280;21556;55.782;37.528;2022-08-01T05:10:27;99974.69;;;20.64;97.34
35435;BME280;21556;55.782;37.528;2022-08-01T05:12:53;99975.72;;;20.57;98.02
35435;BME280;21556;55.782;37.528;2022-08-01T05:15:19;99979.25;;;20.58;97.79
35435;BME280;21556;55.782;37.528;2022-08-01T05:17:45;99975.66;;;20.60;97.44
35435;BME280;21556;55.782;37.528;2022-08-01T05:20:12;99962.94;;;20.75;96.67
35435;BME280;21556;55.782;37.528;2022-08-01T05:22:38;99973.34;;;20.87;96.69
35435;BME280;21556;55.782;37.528;2022-08-01T05:25:04;99968.81;;;20.92;94.96
35435;BME280;21556;55.782;37.528;2022-08-01T05:27:36;99968.63;;;21.00;96.55
35435;BME280;21556;55.782;37.528;2022-08-01T05:30:08;99970.22;;;21.08;94.33
35435;BME280;21556;55.782;37.528;2022-08-01T05:32:35;99969.22;;;21.14;93.22
35435;BME280;21556;55.782;37.528;2022-08-01T05:35:01;99966.50;;;21.15;92.85
35435;BME280;21556;55.782;37.528;2022-08-01T05:37:28;99957.41;;;21.24;93.51
35435;BME280;21556;55.782;37.528;2022-08-01T05:39:54;99969.69;;;21.31;88.92
35435;BME280;21556;55.782;37.528;2022-08-01T05:42:20;99955.56;;;21.26;87.52
35435;BME280;21556;55.782;37.528;2022-08-01T05:44:46;99973.03;;;21.43;89.86
35435;BME280;21556;55.782;37.528;2022-08-01T05:47:13;99964.00;;;21.48;85.35
35435;BME280;21556;55.782;37.528;2022-08-01T05:49:39;99969.13;;;21.57;83.82
35435;BME280;21556;55.782;37.528;2022-08-01T05:52:05;99953.16;;;21.54;83.11
35435;BME280;21556;55.782;37.528;2022-08-01T05:54:31;99955.38;;;21.73;80.19
35435;BME280;21556;55.782;37.528;2022-08-01T05:59:25;99957.91;;;22.13;77.78
35435;BME280;21556;55.782;37.528;2022-08-01T06:01:51;99954.53;;;22.39;76.02
35435;BME280;21556;55.782;37.528;2022-08-01T06:04:17;99951.56;;;22.51;73.37
35435;BME280;21556;55.782;37.528;2022-08-01T06:06:43;99951.09;;;22.67;70.08
35435;BME280;21556;55.782;37.528;2022-08-01T06:09:09;99953.19;;;22.87;70.67
35435;BME280;21556;55.782;37.528;2022-08-01T06:11:35;99948.09;;;23.09;70.31
35435;BME280;21556;55.782;37.528;2022-08-01T06:14:02;99964.75;;;23.18;67.08
35435;BME280;21556;55.782;37.528;2022-08-01T06:16:28;99954.06;;;23.46;63.73
35435;BME280;21556;55.782;37.528;2022-08-01T06:18:53;99954.19;;;23.42;61.91
35435;BME280;21556;55.782;37.528;2022-08-01T06:21:19;99954.81;;;23.50;60.04
35435;BME280;21556;55.782;37.528;2022-08-01T06:23:45;99950.44;;;23.75;63.53
35435;BME280;21556;55.782;37.528;2022-08-01T06:26:12;99949.34;;;24.08;60.07
35435;BME280;21556;55.782;37.528;2022-08-01T06:28:38;99954.28;;;24.20;60.03
35435;BME280;21556;55.782;37.528;2022-08-01T06:31:04;99957.03;;;24.18;56.96
35435;BME280;21556;55.782;37.528;2022-08-01T06:33:30;99955.47;;;24.11;58.49
35435;BME280;21556;55.782;37.528;2022-08-01T06:35:58;99949.91;;;24.42;56.09
35435;BME280;21556;55.782;37.528;2022-08-01T06:38:25;99954.22;;;24.46;56.14
35435;BME280;21556;55.782;37.528;2022-08-01T06:40:51;99953.34;;;24.71;51.82
35435;BME280;21556;55.782;37.528;2022-08-01T06:43:17;99955.47;;;24.61;49.37
35435;BME280;21556;55.782;37.528;2022-08-01T06:45:44;99959.00;;;24.63;50.36
35435;BME280;21556;55.782;37.528;2022-08-01T06:48:09;99969.81;;;24.35;51.48
35435;BME280;21556;55.782;37.528;2022-08-01T06:50:35;99959.69;;;24.43;52.40
35435;BME280;21556;55.782;37.528;2022-08-01T06:53:01;99965.47;;;24.81;52.22
35435;BME280;21556;55.782;37.528;2022-08-01T06:55:27;99953.47;;;24.91;51.04
35435;BME280;21556;55.782;37.528;2022-08-01T06:57:53;99963.84;;;25.24;48.32
35435;BME280;21556;55.782;37.528;2022-08-01T07:00:24;99959.91;;;25.55;46.00
35435;BME280;21556;55.782;37.528;2022-08-01T07:02:51;99969.47;;;25.18;46.16
35435;BME280;21556;55.782;37.528;2022-08-01T07:05:21;99970.81;;;25.05;47.21
35435;BME280;21556;55.782;37.528;2022-08-01T07:07:47;99961.72;;;25.10;47.86
35435;BME280;21556;55.782;37.528;2022-08-01T07:10:13;99962.34;;;25.17;48.44
35435;BME280;21556;55.782;37.528;2022-08-01T07:12:39;99958.31;;;25.51;47.12
35435;BME280;21556;55.782;37.528;2022-08-01T07:15:13;99955.84;;;25.44;45.75
35435;BME280;21556;55.782;37.528;2022-08-01T07:17:40;99952.03;;;25.94;44.39
35435;BME280;21556;55.782;37.528;2022-08-01T07:20:10;99965.94;;;26.46;43.01
35435;BME280;21556;55.782;37.528;2022-08-01T07:22:37;99959.19;;;26.56;38.85
35435;BME280;21556;55.782;37.528;2022-08-01T07:25:07;99941.94;;;27.38;37.35
35435;BME280;21556;55.782;37.528;2022-08-01T07:27:33;99940.09;;;27.93;35.81
35435;BME280;21556;55.782;37.528;2022-08-01T07:29:59;99949.47;;;28.03;35.70
35435;BME280;21556;55.782;37.528;2022-08-01T07:32:25;99934.78;;;28.77;33.56
35435;BME280;21556;55.782;37.528;2022-08-01T07:34:51;99928.38;;;28.95;33.12
35435;BME280;21556;55.782;37.528;2022-08-01T07:37:16;99933.19;;;29.06;33.38
35435;BME280;21556;55.782;37.528;2022-08-01T07:39:42;99941.78;;;28.64;33.90
35435;BME280;21556;55.782;37.528;2022-08-01T07:42:08;99934.53;;;28.97;32.92
35435;BME280;21556;55.782;37.528;2022-08-01T07:44:35;99939.63;;;28.20;34.77
35435;BME280;21556;55.782;37.528;2022-08-01T07:47:01;99933.19;;;29.06;33.13
35435;BME280;21556;55.782;37.528;2022-08-01T07:49:27;99945.91;;;29.04;33.59
35435;BME280;21556;55.782;37.528;2022-08-01T07:51:53;99935.19;;;29.02;32.06
35435;BME280;21556;55.782;37.528;2022-08-01T07:54:19;99935.00;;;29.37;32.17
35435;BME280;21556;55.782;37.528;2022-08-01T07:56:45;99938.97;;;28.49;33.89
35435;BME280;21556;55.782;37.528;2022-08-01T07:59:11;99949.13;;;28.62;33.96
35435;BME280;21556;55.782;37.528;2022-08-01T08:01:37;99946.91;;;28.18;34.25
35435;BME280;21556;55.782;37.528;2022-08-01T08:04:02;99942.75;;;28.63;34.14
35435;BME280;21556;55.782;37.528;2022-08-01T08:06:28;99932.78;;;28.96;33.02
35435;BME280;21556;55.782;37.528;2022-08-01T08:08:54;99940.16;;;29.10;32.67
35435;BME280;21556;55.782;37.528;2022-08-01T08:11:20;99947.44;;;28.59;33.28
35435;BME280;21556;55.782;37.528;2022-08-01T08:13:46;99942.50;;;29.00;33.31
35435;BME280;21556;55.782;37.528;2022-08-01T08:16:11;99948.44;;;29.39;32.76
35435;BME280;21556;55.782;37.528;2022-08-01T08:18:37;99933.53;;;29.47;33.06
35435;BME280;21556;55.782;37.528;2022-08-01T08:21:03;99931.22;;;29.87;31.81
35435;BME280;21556;55.782;37.528;2022-08-01T08:23:29;99921.59;;;30.42;31.36
35435;BME280;21556;55.782;37.528;2022-08-01T08:26:13;99923.47;;;30.11;31.93
35435;BME280;21556;55.782;37.528;2022-08-01T08:28:39;99917.94;;;30.57;31.08
35435;BME280;21556;55.782;37.528;2022-08-01T08:31:08;99917.88;;;31.02;30.48
35435;BME280;21556;55.782;37.528;2022-08-01T08:33:34;99915.44;;;30.83;30.87
35435;BME280;21556;55.782;37.528;2022-08-01T08:36:00;99916.78;;;30.90;30.95
35435;BME280;21556;55.782;37.528;2022-08-01T08:38:26;99915.44;;;30.83;31.75
35435;BME280;21556;55.782;37.528;2022-08-01T08:40:53;99922.63;;;31.25;30.41
35435;BME280;21556;55.782;37.528;2022-08-01T08:43:19;99904.56;;;31.80;28.82
35435;BME280;21556;55.782;37.528;2022-08-01T08:45:46;99905.94;;;32.00;28.38
35435;BME280;21556;55.782;37.528;2022-08-01T08:48:15;99902.47;;;32.23;27.21
35435;BME280;21556;55.782;37.528;2022-08-01T08:50:41;99904.97;;;31.34;28.82
35435;BME280;21556;55.782;37.528;2022-08-01T08:53:10;99916.31;;;30.69;29.54
35435;BME280;21556;55.782;37.528;2022-08-01T08:55:40;99917.94;;;29.68;31.48
35435;BME280;21556;55.782;37.528;2022-08-01T08:58:18;99925.63;;;28.46;32.17
35435;BME280;21556;55.782;37.528;2022-08-01T09:00:45;99919.22;;;28.14;32.52
35435;BME280;21556;55.782;37.528;2022-08-01T09:03:11;99925.66;;;27.58;33.65
35435;BME280;21556;55.782;37.528;2022-08-01T09:05:37;99927.00;;;27.13;34.27
35435;BME280;21556;55.782;37.528;2022-08-01T09:08:07;99926.66;;;26.81;34.34
35435;BME280;21556;55.782;37.528;2022-08-01T09:10:33;99924.50;;;26.50;35.57
35435;BME280;21556;55.782;37.528;2022-08-01T09:13:10;99918.22;;;26.70;34.94
35435;BME280;21556;55.782;37.528;2022-08-01T09:15:44;99923.09;;;27.38;33.49
35435;BME280;21556;55.782;37.528;2022-08-01T09:18:40;99906.22;;;28.89;32.53
35435;BME280;21556;55.782;37.528;2022-08-01T09:21:18;99895.34;;;30.00;30.19
35435;BME280;21556;55.782;37.528;2022-08-01T09:23:49;99893.22;;;31.19;29.23
35435;BME280;21556;55.782;37.528;2022-08-01T09:26:18;99883.06;;;31.23;28.31
35435;BME280;21556;55.782;37.528;2022-08-01T09:28:45;99893.56;;;30.43;29.11
35435;BME280;21556;55.782;37.528;2022-08-01T09:31:17;99877.72;;;31.62;27.59
35435;BME280;21556;55.782;37.528;2022-08-01T09:34:01;99891.09;;;31.38;27.69
35435;BME280;21556;55.782;37.528;2022-08-01T09:36:55;99893.59;;;30.86;28.45
35435;BME280;21556;55.782;37.528;2022-08-01T09:39:25;99891.41;;;31.34;28.13
35435;BME280;21556;55.782;37.528;2022-08-01T09:41:52;99891.06;;;31.65;27.99
35435;BME280;21556;55.782;37.528;2022-08-01T09:44:19;99867.94;;;32.38;25.99
35435;BME280;21556;55.782;37.528;2022-08-01T09:46:50;99870.22;;;32.31;26.54
35435;BME280;21556;55.782;37.528;2022-08-01T09:49:31;99882.00;;;31.79;27.16
35435;BME280;21556;55.782;37.528;2022-08-01T09:52:13;99881.34;;;31.76;26.45
35435;BME280;21556;55.782;37.528;2022-08-01T09:54:44;99870.69;;;32.25;26.00
35435;BME280;21556;55.782;37.528;2022-08-01T09:57:18;99862.22;;;32.55;26.09
35435;BME280;21556;55.782;37.528;2022-08-01T09:59:56;99868.16;;;32.09;25.89
35435;BME280;21556;55.782;37.528;2022-08-01T10:02:39;99870.72;;;31.85;26.64
35435;BME280;21556;55.782;37.528;2022-08-01T10:05:10;99873.13;;;31.50;27.49
35435;BME280;21556;55.782;37.528;2022-08-01T10:07:55;99877.56;;;30.40;28.91
35435;BME280;21556;55.782;37.528;2022-08-01T10:10:21;99888.53;;;29.62;30.29
35435;BME280;21556;55.782;37.528;2022-08-01T10:12:47;99890.22;;;29.49;30.57
35435;BME280;21556;55.782;37.528;2022-08-01T10:15:15;99892.75;;;29.05;30.98
35435;BME280;21556;55.782;37.528;2022-08-01T10:17:42;99893.72;;;28.37;32.77
35435;BME280;21556;55.782;37.528;2022-08-01T10:20:11;99893.06;;;28.83;31.81
35435;BME280;21556;55.782;37.528;2022-08-01T10:22:38;99881.69;;;29.25;30.95
35435;BME280;21556;55.782;37.528;2022-08-01T10:25:05;99897.25;;;28.39;32.14
35435;BME280;21556;55.782;37.528;2022-08-01T10:27:34;99892.19;;;27.98;32.40
35435;BME280;21556;55.782;37.528;2022-08-01T10:30:03;99886.41;;;27.52;33.58
35435;BME280;21556;55.782;37.528;2022-08-01T10:32:32;99895.13;;;27.40;34.13
35435;BME280;21556;55.782;37.528;2022-08-01T10:34:59;99889.59;;;27.79;33.12
35435;BME280;21556;55.782;37.528;2022-08-01T10:37:25;99890.69;;;27.75;33.29
35435;BME280;21556;55.782;37.528;2022-08-01T10:39:52;99886.72;;;27.82;33.18
35435;BME280;21556;55.782;37.528;2022-08-01T10:42:18;99889.34;;;27.48;33.93
35435;BME280;21556;55.782;37.528;2022-08-01T10:44:45;99889.28;;;27.49;34.35
35435;BME280;21556;55.782;37.528;2022-08-01T10:47:15;99891.09;;;27.49;34.13
35435;BME280;21556;55.782;37.528;2022-08-01T10:50:02;99893.75;;;27.68;33.48
35435;BME280;21556;55.782;37.528;2022-08-01T10:52:30;99889.16;;;27.33;34.13
35435;BME280;21556;55.782;37.528;2022-08-01T10:55:07;99874.19;;;27.28;34.68
35435;BME280;21556;55.782;37.528;2022-08-01T10:57:46;99878.56;;;27.48;33.91
35435;BME280;21556;55.782;37.528;2022-08-01T11:00:20;99889.88;;;27.37;34.07
35435;BME280;21556;55.782;37.528;2022-08-01T11:03:00;99881.69;;;26.83;34.41
35435;BME280;21556;55.782;37.528;2022-08-01T11:05:31;99879.00;;;27.02;34.59
35435;BME280;21556;55.782;37.528;2022-08-01T11:08:01;99875.59;;;27.18;34.92
35435;BME280;21556;55.782;37.528;2022-08-01T11:10:37;99880.03;;;27.19;34.15
35435;BME280;21556;55.782;37.528;2022-08-01T11:13:03;99876.09;;;27.26;34.65
35435;BME280;21556;55.782;37.528;2022-08-01T11:15:34;99867.63;;;27.33;34.07
35435;BME280;21556;55.782;37.528;2022-08-01T11:18:02;99870.50;;;26.93;34.94
35435;BME280;21556;55.782;37.528;2022-08-01T11:20:34;99869.16;;;27.01;34.96
35435;BME280;21556;55.782;37.528;2022-08-01T11:30:39;99854.69;;;27.23;34.10
35435;BME280;21556;55.782;37.528;2022-08-01T11:33:05;99850.88;;;27.27;34.54
35435;BME280;21556;55.782;37.528;2022-08-01T11:35:32;99846.31;;;27.10;34.61
35435;BME280;21556;55.782;37.528;2022-08-01T11:38:24;99855.69;;;27.01;35.00
35435;BME280;21556;55.782;37.528;2022-08-01T11:41:21;99860.69;;;26.92;35.32
35435;BME280;21556;55.782;37.528;2022-08-01T11:44:03;99853.75;;;26.86;35.19
35435;BME280;21556;55.782;37.528;2022-08-01T11:52:11;99846.19;;;26.75;35.09
35435;BME280;21556;55.782;37.528;2022-08-01T11:57:05;99845.81;;;26.83;34.68
35435;BME280;21556;55.782;37.528;2022-08-01T11:59:43;99841.69;;;26.76;34.84
35435;BME280;21556;55.782;37.528;2022-08-01T12:02:39;99844.00;;;26.83;34.76
35435;BME280;21556;55.782;37.528;2022-08-01T12:05:08;99838.09;;;26.94;34.14
35435;BME280;21556;55.782;37.528;2022-08-01T12:07:35;99836.84;;;26.84;34.55
35435;BME280;21556;55.782;37.528;2022-08-01T12:10:05;99836.09;;;26.80;34.11
35435;BME280;21556;55.782;37.528;2022-08-01T12:12:32;99840.81;;;26.56;34.97
35435;BME280;21556;55.782;37.528;2022-08-01T12:15:00;99834.72;;;26.72;34.37
35435;BME280;21556;55.782;37.528;2022-08-01T12:17:38;99834.28;;;26.81;34.29
35435;BME280;21556;55.782;37.528;2022-08-01T12:20:07;99835.34;;;26.96;35.11
35435;BME280;21556;55.782;37.528;2022-08-01T12:22:33;99824.66;;;27.13;34.56
35435;BME280;21556;55.782;37.528;2022-08-01T12:25:08;99830.19;;;26.91;35.01
35435;BME280;21556;55.782;37.528;2022-08-01T12:27:36;99839.00;;;26.76;35.42
35435;BME280;21556;55.782;37.528;2022-08-01T12:30:05;99827.97;;;26.63;35.63
35435;BME280;21556;55.782;37.528;2022-08-01T12:32:34;99825.91;;;26.49;36.06
35435;BME280;21556;55.782;37.528;2022-08-01T12:35:19;99827.69;;;26.69;35.92
35435;BME280;21556;55.782;37.528;2022-08-01T12:37:54;99828.19;;;26.77;35.55
35435;BME280;21556;55.782;37.528;2022-08-01T12:40:22;99828.19;;;26.77;35.28
35435;BME280;21556;55.782;37.528;2022-08-01T12:42:50;99818.19;;;26.79;35.18
35435;BME280;21556;55.782;37.528;2022-08-01T12:45:17;99822.44;;;26.47;35.65
35435;BME280;21556;55.782;37.528;2022-08-01T12:47:43;99824.78;;;26.55;36.05
35435;BME280;21556;55.782;37.528;2022-08-01T12:50:13;99820.63;;;26.48;36.21
35435;BME280;21556;55.782;37.528;2022-08-01T12:52:40;99819.66;;;26.49;35.38
35435;BME280;21556;55.782;37.528;2022-08-01T12:55:11;99818.75;;;26.29;35.81
35435;BME280;21556;55.782;37.528;2022-08-01T12:57:40;99816.94;;;26.30;35.90
35435;BME280;21556;55.782;37.528;2022-08-01T13:00:16;99818.03;;;26.26;35.66
35435;BME280;21556;55.782;37.528;2022-08-01T13:02:46;99819.78;;;26.06;36.39
35435;BME280;21556;55.782;37.528;2022-08-01T13:05:13;99815.16;;;26.29;35.79
35435;BME280;21556;55.782;37.528;2022-08-01T13:07:44;99813.94;;;26.36;35.59
35435;BME280;21556;55.782;37.528;2022-08-01T13:10:14;99804.94;;;26.37;35.69
35435;BME280;21556;55.782;37.528;2022-08-01T13:12:51;99797.78;;;26.17;36.65
35435;BME280;21556;55.782;37.528;2022-08-01T13:15:32;99798.00;;;26.12;37.32
35435;BME280;21556;55.782;37.528;2022-08-01T13:18:01;99805.50;;;26.25;37.04
35435;BME280;21556;55.782;37.528;2022-08-01T13:20:46;99799.88;;;26.10;37.16
35435;BME280;21556;55.782;37.528;2022-08-01T13:23:14;99791.53;;;26.16;36.55
35435;BME280;21556;55.782;37.528;2022-08-01T13:25:48;99790.03;;;26.30;36.10